createdAt,value
2023-04-10T00:00:13.581Z,7.15
2023-04-10T00:01:13.521Z,7.25
2023-04-10T00:02:13.647Z,7.14
2023-04-10T00:03:13.718Z,7.23
2023-04-10T00:04:13.525Z,7.18
2023-04-10T00:05:13.361Z,7.15
2023-04-10T00:06:13.274Z,7.18
2023-04-10T00:07:13.220Z,7.23
2023-04-10T00:08:13.178Z,7.08
2023-04-10T00:09:13.123Z,7.15
2023-04-10T00:10:13.074Z,7.22
2023-04-10T00:11:13.026Z,7.15
2023-04-10T00:12:12.989Z,7.22
2023-04-10T15:43:52.178Z,18.83
2023-04-10T15:44:52.067Z,18.86
2023-04-10T15:45:52.031Z,18.73
2023-04-10T15:46:51.970Z,18.76
2023-04-10T15:47:52.005Z,18.82
2023-04-10T15:48:51.878Z,18.73
2023-04-10T15:49:51.836Z,18.82
2023-04-10T15:50:51.796Z,18.78
2023-04-10T15:51:51.761Z,18.71
2023-04-10T15:52:51.701Z,18.70
2023-04-10T18:35:09.107Z,13.78
2023-04-10T18:36:09.081Z,13.64
2023-04-10T18:37:09.952Z,13.62
2023-04-10T18:38:08.927Z,13.55
2023-04-10T18:39:08.888Z,13.49
2023-04-10T18:40:16.218Z,13.55
2023-04-10T18:41:08.809Z,13.57
2023-04-10T18:42:08.754Z,13.55
2023-04-10T18:43:08.708Z,13.52
2023-04-10T18:44:08.998Z,13.46
2023-04-10T18:45:08.617Z,13.43
2023-04-10T18:46:08.689Z,13.43
2023-04-10T18:47:08.617Z,13.43
2023-04-10T18:48:08.491Z,13.42
2023-04-10T18:49:08.442Z,13.43
2023-04-10T18:50:08.403Z,13.43
2023-04-10T18:51:08.380Z,13.37
2023-04-10T18:52:08.313Z,13.37
2023-04-10T18:53:08.272Z,13.37
2023-04-10T18:54:08.234Z,13.36
2023-04-10T18:55:08.180Z,13.28
2023-04-10T18:56:08.142Z,13.30
2023-04-10T18:57:08.097Z,13.27
2023-04-10T18:58:08.052Z,13.30
2023-04-10T19:41:15.102Z,12.36
2023-04-10T19:42:15.015Z,12.40
2023-04-10T19:43:15.026Z,12.43
2023-04-10T19:44:14.928Z,12.35
2023-04-10T19:45:14.886Z,12.40
2023-04-10T19:46:14.877Z,12.36
2023-04-10T19:47:14.788Z,12.35
2023-04-10T19:48:14.954Z,12.30
2023-04-10T19:49:14.720Z,12.25
2023-04-10T19:50:14.654Z,12.30
2023-04-10T19:51:14.622Z,12.28
2023-04-10T19:52:14.574Z,12.35
2023-04-10T19:53:14.526Z,12.23
2023-04-10T19:54:14.478Z,12.30
2023-04-10T19:55:15.213Z,12.20
2023-04-10T19:56:14.386Z,12.29
2023-04-10T19:57:14.361Z,12.23
2023-04-10T19:58:30.538Z,12.28
2023-04-10T19:59:14.267Z,12.25
2023-04-10T20:00:14.212Z,12.23
2023-04-10T20:01:14.176Z,12.20
2023-04-10T20:02:14.263Z,12.17
2023-04-10T20:03:14.239Z,12.17
2023-04-10T20:04:14.109Z,12.23
2023-04-10T20:05:14.031Z,12.14
2023-04-10T20:06:13.973Z,12.14
2023-04-10T20:07:13.895Z,12.10
2023-04-10T20:08:13.852Z,12.17
2023-04-10T20:09:13.822Z,12.17
2023-04-10T20:10:13.759Z,12.14
2023-04-10T20:11:13.725Z,12.15
2023-04-10T20:12:13.675Z,12.14
2023-04-10T20:13:13.655Z,12.12
2023-04-10T20:14:13.609Z,12.03
2023-04-10T20:15:13.545Z,12.08
2023-04-10T20:16:13.526Z,11.96
2023-04-10T20:17:13.458Z,12.02
2023-04-10T20:18:13.412Z,12.05
2023-04-10T20:19:13.367Z,12.05
2023-04-10T20:20:13.522Z,11.96
2023-04-10T20:21:13.275Z,11.97
2023-04-10T20:22:13.231Z,12.03
2023-04-10T20:23:13.187Z,11.86
2023-04-10T20:24:13.143Z,11.93
2023-04-10T20:25:13.094Z,11.88
2023-04-10T20:26:13.071Z,11.89
2023-04-10T20:27:13.011Z,11.91
2023-04-10T20:28:12.986Z,11.89
2023-04-10T20:29:12.949Z,11.83
2023-04-10T20:30:12.945Z,11.86
2023-04-10T20:31:12.916Z,11.89
2023-04-10T20:32:12.881Z,11.86
2023-04-10T20:33:12.790Z,11.76
2023-04-10T20:34:12.700Z,11.81
2023-04-10T20:35:12.658Z,11.83
2023-04-10T20:36:12.629Z,11.81
2023-04-10T20:37:12.563Z,11.78
2023-04-10T20:38:12.531Z,11.83
2023-04-10T20:39:12.481Z,11.78
2023-04-10T20:40:12.433Z,11.77
2023-04-10T20:41:12.392Z,11.78
2023-04-10T20:42:12.360Z,11.77
2023-04-10T20:43:12.406Z,11.86
2023-04-10T20:44:12.250Z,11.83
2023-04-10T20:46:12.186Z,11.86
2023-04-10T20:47:12.243Z,11.81
2023-04-10T20:48:12.101Z,11.86
2023-04-10T20:50:12.881Z,11.83
2023-04-10T20:51:11.943Z,11.78
2023-04-10T20:52:11.909Z,11.80
2023-04-10T20:53:11.854Z,11.74
2023-04-10T20:54:11.874Z,11.76
2023-04-10T20:55:11.774Z,11.67
2023-04-10T20:56:11.722Z,11.67
2023-04-10T20:57:11.675Z,11.76
2023-04-10T20:58:11.631Z,11.70
2023-04-10T20:59:11.587Z,11.74
2023-04-10T21:00:11.544Z,11.65
2023-04-10T21:01:11.536Z,11.73
2023-04-10T21:02:11.559Z,11.70
2023-04-10T21:03:11.700Z,11.68
2023-04-10T21:04:11.393Z,11.62
2023-04-10T21:05:11.326Z,11.60
2023-04-10T21:06:11.280Z,11.58
2023-04-10T21:07:11.240Z,11.52
2023-04-10T21:08:11.195Z,11.52
2023-04-10T21:09:11.148Z,11.52
2023-04-10T21:10:11.117Z,11.53
2023-04-10T21:11:11.061Z,11.43
2023-04-10T21:12:11.013Z,11.49
2023-04-10T21:13:10.971Z,11.44
2023-04-10T21:14:10.928Z,11.43
2023-04-10T21:15:10.891Z,11.48
2023-04-10T21:16:10.856Z,11.43
2023-04-10T21:17:10.793Z,11.43
2023-04-10T21:18:10.797Z,11.44
2023-04-10T21:19:10.706Z,11.33
2023-04-10T21:20:10.678Z,11.22
2023-04-10T21:21:10.614Z,11.37
2023-04-10T21:22:10.573Z,11.30
2023-04-10T21:23:10.525Z,11.26
2023-04-10T21:24:10.490Z,11.19
2023-04-10T21:25:10.440Z,11.41
2023-04-10T21:26:10.402Z,11.25
2023-04-10T21:27:10.353Z,11.33
2023-04-10T21:28:10.305Z,11.23
2023-04-10T21:29:10.260Z,11.38
2023-04-10T21:30:10.240Z,11.27
2023-04-10T21:31:10.170Z,11.27
2023-04-10T21:32:10.177Z,11.30
2023-04-10T21:33:10.092Z,11.30
2023-04-10T21:34:10.053Z,11.25
2023-04-10T21:35:09.989Z,11.19
2023-04-10T21:36:09.979Z,11.19
2023-04-10T21:37:09.913Z,11.22
2023-04-10T21:38:09.886Z,11.15
2023-04-10T21:39:09.833Z,11.15
2023-04-10T21:40:09.817Z,11.15
2023-04-10T21:41:09.726Z,11.20
2023-04-10T21:42:09.675Z,11.15
2023-04-10T21:43:09.651Z,11.07
2023-04-10T21:44:09.591Z,11.19
2023-04-10T21:45:09.540Z,11.04
2023-04-10T21:46:09.524Z,11.10
2023-04-10T21:47:09.454Z,11.07
2023-04-10T21:48:09.412Z,11.04
2023-04-10T21:49:09.380Z,11.08
2023-04-10T21:50:09.548Z,11.02
2023-04-10T21:51:09.295Z,11.00
2023-04-10T21:52:09.239Z,11.02
2023-04-10T21:53:09.199Z,10.97
2023-04-10T21:54:09.144Z,11.00
2023-04-10T21:55:09.097Z,10.95
2023-04-10T21:56:09.049Z,10.92
2023-04-10T21:57:09.014Z,11.01
2023-04-10T21:58:08.957Z,10.92
2023-04-10T21:59:08.920Z,10.89
2023-04-10T22:00:08.866Z,11.01
2023-04-10T22:01:08.866Z,10.89
2023-04-10T22:02:08.822Z,10.89
2023-04-10T22:03:08.876Z,10.87
2023-04-10T22:04:08.781Z,10.92
2023-04-10T22:05:08.648Z,10.90
2023-04-10T22:06:08.623Z,10.89
2023-04-10T22:07:08.561Z,10.95
2023-04-10T22:08:08.509Z,10.87
2023-04-10T22:09:08.468Z,10.92
2023-04-10T22:10:08.428Z,10.95
2023-04-10T22:11:08.381Z,10.94
2023-04-10T22:12:08.331Z,10.89
2023-04-10T22:13:10.273Z,10.87
2023-04-10T22:14:16.990Z,10.89
2023-04-10T22:15:08.214Z,10.86
2023-04-10T22:16:08.189Z,10.86
2023-04-10T22:17:08.253Z,10.86
2023-04-10T22:18:08.189Z,10.89
2023-04-10T22:19:08.031Z,10.89
2023-04-10T22:20:07.982Z,10.90
2023-04-10T22:21:07.946Z,10.89
2023-04-10T22:22:07.901Z,10.80
2023-04-10T22:23:07.864Z,10.82
2023-04-10T22:24:07.797Z,10.77
2023-04-10T22:25:07.755Z,10.80
2023-04-10T22:26:07.911Z,10.84
2023-04-10T22:27:07.666Z,10.83
2023-04-10T22:28:07.617Z,10.75
2023-04-10T22:29:07.638Z,10.82
2023-04-10T22:30:07.607Z,10.79
2023-04-10T22:31:07.725Z,10.83
2023-04-10T22:32:07.443Z,10.82
2023-04-10T22:33:07.430Z,10.80
2023-04-10T22:34:07.346Z,10.77
2023-04-10T22:35:07.314Z,10.75
2023-04-10T22:36:07.289Z,10.77
2023-04-10T22:37:07.219Z,10.77
2023-04-10T22:38:07.271Z,10.69
2023-04-10T22:39:07.122Z,10.69
2023-04-10T22:40:07.280Z,10.76
2023-04-10T22:41:07.039Z,10.71
2023-04-10T22:42:06.986Z,10.75
2023-04-10T22:43:06.950Z,10.64
2023-04-10T22:44:06.897Z,10.61
2023-04-10T22:45:06.860Z,10.62
2023-04-10T22:46:06.857Z,10.61
2023-04-10T22:47:06.766Z,10.58
2023-04-10T22:48:06.832Z,10.62
2023-04-10T22:49:06.678Z,10.53
2023-04-10T22:50:06.625Z,10.55
2023-04-10T22:51:06.579Z,10.48
2023-04-10T22:52:06.530Z,10.58
2023-04-10T22:53:06.500Z,10.57
2023-04-10T22:54:06.461Z,10.46
2023-04-10T22:55:06.405Z,10.51
2023-04-10T22:56:06.364Z,10.51
2023-04-10T22:57:06.306Z,10.51
2023-04-10T22:58:06.264Z,10.43
2023-04-10T22:59:06.218Z,10.48
2023-04-10T23:00:06.200Z,10.48
2023-04-10T23:01:06.162Z,10.49
2023-04-10T23:02:06.239Z,10.38
2023-04-10T23:03:06.142Z,10.45
2023-04-10T23:04:06.038Z,10.31
2023-04-10T23:05:05.950Z,10.43
2023-04-10T23:06:05.913Z,10.36
2023-04-10T23:07:05.865Z,10.42
2023-04-10T23:08:05.823Z,10.45
2023-04-10T23:09:05.766Z,10.41
2023-04-10T23:10:05.741Z,10.43
2023-04-10T23:11:05.674Z,10.45
2023-04-10T23:12:05.629Z,10.43
2023-04-10T23:13:05.588Z,10.46
2023-04-10T23:14:05.555Z,10.36
2023-04-10T23:15:05.504Z,10.43
2023-04-10T23:16:05.506Z,10.30
2023-04-10T23:17:05.411Z,10.42
2023-04-10T23:18:05.419Z,10.38
2023-04-10T23:19:05.318Z,10.41
2023-04-10T23:20:05.269Z,10.46
2023-04-10T23:21:05.232Z,10.45
2023-04-10T23:22:05.192Z,10.34
2023-04-10T23:23:05.141Z,10.43
2023-04-10T23:24:05.093Z,10.42
2023-04-10T23:25:05.066Z,10.42
2023-04-10T23:26:05.029Z,10.43
2023-04-10T23:27:04.959Z,10.36
2023-04-10T23:28:04.910Z,10.39
2023-04-10T23:29:04.881Z,10.38
2023-04-10T23:30:04.829Z,10.43
2023-04-10T23:31:04.847Z,10.42
2023-04-10T23:32:04.732Z,10.48
2023-04-10T23:33:04.753Z,10.46
2023-04-10T23:34:04.643Z,10.42
2023-04-10T23:35:04.596Z,10.38
2023-04-10T23:36:04.608Z,10.43
2023-04-10T23:37:04.507Z,10.39
2023-04-10T23:38:04.464Z,10.33
2023-04-10T23:39:04.422Z,10.45
2023-04-10T23:40:04.372Z,10.48
2023-04-10T23:41:04.325Z,10.42
2023-04-10T23:58:47.867Z,10.53
2023-04-10T23:59:46.550Z,10.55
